sensor_id;sensor_type;location;lat;lon;timestamp;P1;durP1;ratioP1;P2;durP2;ratioP2
16093;SDS011;8151;47.824;12.092;2022-12-17T00:00:32;22.27;;;12.10;;
16093;SDS011;8151;47.824;12.092;2022-12-17T00:03:18;22.23;;;11.83;;
16093;SDS011;8151;47.824;12.092;2022-12-17T00:06:04;21.13;;;12.50;;
16093;SDS011;8151;47.824;12.092;2022-12-17T00:08:50;22.93;;;12.60;;
16093;SDS011;8151;47.824;12.092;2022-12-17T00:11:36;22.03;;;12.30;;
16093;SDS011;8151;47.824;12.092;2022-12-17T00:14:24;23.87;;;12.17;;
16093;SDS011;8151;47.824;12.092;2022-12-17T00:17:06;23.03;;;13.17;;
16093;SDS011;8151;47.824;12.092;2022-12-17T00:19:52;20.90;;;12.40;;
16093;SDS011;8151;47.824;12.092;2022-12-17T00:22:38;29.60;;;15.60;;
16093;SDS011;8151;47.824;12.092;2022-12-17T00:25:24;26.10;;;14.27;;
16093;SDS011;8151;47.824;12.092;2022-12-17T00:28:10;22.53;;;13.60;;
16093;SDS011;8151;47.824;12.092;2022-12-17T00:30:58;24.80;;;13.57;;
16093;SDS011;8151;47.824;12.092;2022-12-17T00:33:45;23.80;;;12.97;;
16093;SDS011;8151;47.824;12.092;2022-12-17T00:36:31;22.20;;;11.97;;
16093;SDS011;8151;47.824;12.092;2022-12-17T00:39:16;23.10;;;12.77;;
16093;SDS011;8151;47.824;12.092;2022-12-17T00:42:02;26.47;;;12.80;;
16093;SDS011;8151;47.824;12.092;2022-12-17T00:44:48;19.87;;;12.40;;
16093;SDS011;8151;47.824;12.092;2022-12-17T00:47:36;21.57;;;12.33;;
16093;SDS011;8151;47.824;12.092;2022-12-17T00:50:22;20.97;;;11.97;;
16093;SDS011;8151;47.824;12.092;2022-12-17T00:53:08;22.80;;;12.53;;
16093;SDS011;8151;47.824;12.092;2022-12-17T00:55:54;23.53;;;13.13;;
16093;SDS011;8151;47.824;12.092;2022-12-17T00:58:43;22.83;;;12.37;;
16093;SDS011;8151;47.824;12.092;2022-12-17T01:01:29;25.97;;;12.77;;
16093;SDS011;8151;47.824;12.092;2022-12-17T01:04:16;21.93;;;12.20;;
16093;SDS011;8151;47.824;12.092;2022-12-17T01:07:03;24.47;;;12.13;;
16093;SDS011;8151;47.824;12.092;2022-12-17T01:09:49;22.47;;;12.23;;
16093;SDS011;8151;47.824;12.092;2022-12-17T01:12:35;28.03;;;13.23;;
16093;SDS011;8151;47.824;12.092;2022-12-17T01:15:22;23.43;;;12.60;;
16093;SDS011;8151;47.824;12.092;2022-12-17T01:18:08;20.07;;;10.93;;
16093;SDS011;8151;47.824;12.092;2022-12-17T01:21:09;23.93;;;12.23;;
16093;SDS011;8151;47.824;12.092;2022-12-17T01:23:55;20.13;;;10.93;;
16093;SDS011;8151;47.824;12.092;2022-12-17T01:26:41;24.70;;;12.97;;
16093;SDS011;8151;47.824;12.092;2022-12-17T01:29:27;27.67;;;12.27;;
16093;SDS011;8151;47.824;12.092;2022-12-17T01:32:13;23.13;;;12.37;;
16093;SDS011;8151;47.824;12.092;2022-12-17T01:34:59;20.90;;;12.10;;
16093;SDS011;8151;47.824;12.092;2022-12-17T01:37:46;26.23;;;12.33;;
16093;SDS011;8151;47.824;12.092;2022-12-17T01:40:32;23.33;;;12.03;;
16093;SDS011;8151;47.824;12.092;2022-12-17T01:46:26;20.50;;;10.87;;
16093;SDS011;8151;47.824;12.092;2022-12-17T01:49:17;21.33;;;11.27;;
16093;SDS011;8151;47.824;12.092;2022-12-17T01:52:13;21.53;;;12.00;;
16093;SDS011;8151;47.824;12.092;2022-12-17T01:55:02;24.43;;;12.10;;
16093;SDS011;8151;47.824;12.092;2022-12-17T01:57:49;22.33;;;10.87;;
16093;SDS011;8151;47.824;12.092;2022-12-17T02:00:35;23.10;;;12.57;;
16093;SDS011;8151;47.824;12.092;2022-12-17T02:03:21;23.90;;;12.47;;
16093;SDS011;8151;47.824;12.092;2022-12-17T02:06:09;27.03;;;13.13;;
16093;SDS011;8151;47.824;12.092;2022-12-17T02:09:06;24.57;;;12.23;;
16093;SDS011;8151;47.824;12.092;2022-12-17T02:12:02;25.23;;;12.73;;
16093;SDS011;8151;47.824;12.092;2022-12-17T02:14:56;27.80;;;13.53;;
16093;SDS011;8151;47.824;12.092;2022-12-17T02:17:47;22.60;;;12.97;;
16093;SDS011;8151;47.824;12.092;2022-12-17T02:20:37;22.07;;;12.63;;
16093;SDS011;8151;47.824;12.092;2022-12-17T02:23:29;26.37;;;12.10;;
16093;SDS011;8151;47.824;12.092;2022-12-17T02:26:29;27.63;;;13.33;;
16093;SDS011;8151;47.824;12.092;2022-12-17T02:29:20;28.20;;;14.17;;
16093;SDS011;8151;47.824;12.092;2022-12-17T02:32:08;28.33;;;14.00;;
16093;SDS011;8151;47.824;12.092;2022-12-17T02:34:56;28.60;;;13.53;;
16093;SDS011;8151;47.824;12.092;2022-12-17T02:37:44;24.40;;;13.50;;
16093;SDS011;8151;47.824;12.092;2022-12-17T02:40:30;26.97;;;13.40;;
16093;SDS011;8151;47.824;12.092;2022-12-17T02:43:24;31.33;;;15.63;;
16093;SDS011;8151;47.824;12.092;2022-12-17T02:46:10;33.47;;;15.63;;
16093;SDS011;8151;47.824;12.092;2022-12-17T02:48:57;33.10;;;16.33;;
16093;SDS011;8151;47.824;12.092;2022-12-17T02:51:43;31.57;;;15.40;;
16093;SDS011;8151;47.824;12.092;2022-12-17T02:54:31;34.20;;;17.33;;
16093;SDS011;8151;47.824;12.092;2022-12-17T02:57:18;30.37;;;15.80;;
16093;SDS011;8151;47.824;12.092;2022-12-17T03:00:11;35.13;;;17.27;;
16093;SDS011;8151;47.824;12.092;2022-12-17T03:02:58;35.20;;;16.90;;
16093;SDS011;8151;47.824;12.092;2022-12-17T03:05:44;34.40;;;15.23;;
16093;SDS011;8151;47.824;12.092;2022-12-17T03:08:30;32.63;;;16.10;;
16093;SDS011;8151;47.824;12.092;2022-12-17T03:11:16;31.67;;;15.77;;
16093;SDS011;8151;47.824;12.092;2022-12-17T03:14:01;27.67;;;15.73;;
16093;SDS011;8151;47.824;12.092;2022-12-17T03:16:48;29.53;;;16.23;;
16093;SDS011;8151;47.824;12.092;2022-12-17T03:19:34;30.00;;;16.27;;
16093;SDS011;8151;47.824;12.092;2022-12-17T03:22:20;32.07;;;16.03;;
16093;SDS011;8151;47.824;12.092;2022-12-17T03:25:07;31.67;;;15.37;;
16093;SDS011;8151;47.824;12.092;2022-12-17T03:27:53;32.47;;;17.10;;
16093;SDS011;8151;47.824;12.092;2022-12-17T03:30:38;33.97;;;15.83;;
16093;SDS011;8151;47.824;12.092;2022-12-17T03:33:29;30.53;;;16.00;;
16093;SDS011;8151;47.824;12.092;2022-12-17T03:36:14;28.63;;;14.67;;
16093;SDS011;8151;47.824;12.092;2022-12-17T03:39:00;29.70;;;15.73;;
16093;SDS011;8151;47.824;12.092;2022-12-17T03:41:46;30.80;;;15.43;;
16093;SDS011;8151;47.824;12.092;2022-12-17T03:44:32;27.13;;;15.27;;
16093;SDS011;8151;47.824;12.092;2022-12-17T03:47:18;29.30;;;15.47;;
16093;SDS011;8151;47.824;12.092;2022-12-17T03:50:06;27.67;;;14.73;;
16093;SDS011;8151;47.824;12.092;2022-12-17T03:52:52;28.03;;;14.77;;
16093;SDS011;8151;47.824;12.092;2022-12-17T03:55:38;28.33;;;14.67;;
16093;SDS011;8151;47.824;12.092;2022-12-17T03:58:24;27.10;;;15.43;;
16093;SDS011;8151;47.824;12.092;2022-12-17T04:01:10;34.60;;;15.27;;
16093;SDS011;8151;47.824;12.092;2022-12-17T04:03:56;29.13;;;15.07;;
16093;SDS011;8151;47.824;12.092;2022-12-17T04:06:43;32.33;;;16.63;;
16093;SDS011;8151;47.824;12.092;2022-12-17T04:09:29;27.03;;;15.10;;
16093;SDS011;8151;47.824;12.092;2022-12-17T04:12:15;27.43;;;15.30;;
16093;SDS011;8151;47.824;12.092;2022-12-17T04:15:01;25.93;;;15.27;;
16093;SDS011;8151;47.824;12.092;2022-12-17T04:17:47;25.97;;;13.73;;
16093;SDS011;8151;47.824;12.092;2022-12-17T04:20:33;30.83;;;14.60;;
16093;SDS011;8151;47.824;12.092;2022-12-17T04:23:28;26.70;;;14.33;;
16093;SDS011;8151;47.824;12.092;2022-12-17T04:26:14;27.30;;;14.47;;
16093;SDS011;8151;47.824;12.092;2022-12-17T04:29:00;25.97;;;13.93;;
16093;SDS011;8151;47.824;12.092;2022-12-17T04:31:46;23.30;;;13.47;;
16093;SDS011;8151;47.824;12.092;2022-12-17T04:34:33;20.53;;;12.57;;
16093;SDS011;8151;47.824;12.092;2022-12-17T04:37:18;26.37;;;14.20;;
16093;SDS011;8151;47.824;12.092;2022-12-17T04:40:07;25.63;;;13.47;;
16093;SDS011;8151;47.824;12.092;2022-12-17T04:42:55;40.07;;;16.20;;
16093;SDS011;8151;47.824;12.092;2022-12-17T04:45:40;27.63;;;14.97;;
16093;SDS011;8151;47.824;12.092;2022-12-17T04:48:26;26.07;;;14.93;;
16093;SDS011;8151;47.824;12.092;2022-12-17T04:51:12;25.27;;;14.23;;
16093;SDS011;8151;47.824;12.092;2022-12-17T04:53:58;23.70;;;13.67;;
16093;SDS011;8151;47.824;12.092;2022-12-17T04:56:46;26.27;;;14.73;;
16093;SDS011;8151;47.824;12.092;2022-12-17T04:59:32;23.47;;;13.87;;
16093;SDS011;8151;47.824;12.092;2022-12-17T05:02:18;24.10;;;14.13;;
16093;SDS011;8151;47.824;12.092;2022-12-17T05:05:08;23.13;;;13.93;;
16093;SDS011;8151;47.824;12.092;2022-12-17T05:07:55;23.63;;;14.43;;
16093;SDS011;8151;47.824;12.092;2022-12-17T05:10:42;27.40;;;14.50;;
16093;SDS011;8151;47.824;12.092;2022-12-17T05:13:25;26.03;;;14.60;;
16093;SDS011;8151;47.824;12.092;2022-12-17T05:16:23;23.80;;;13.80;;
16093;SDS011;8151;47.824;12.092;2022-12-17T05:19:09;26.57;;;14.23;;
16093;SDS011;8151;47.824;12.092;2022-12-17T05:21:55;24.90;;;14.37;;
16093;SDS011;8151;47.824;12.092;2022-12-17T05:24:41;19.80;;;13.27;;
16093;SDS011;8151;47.824;12.092;2022-12-17T05:27:26;23.13;;;13.03;;
16093;SDS011;8151;47.824;12.092;2022-12-17T05:30:13;21.00;;;12.60;;
16093;SDS011;8151;47.824;12.092;2022-12-17T05:33:00;24.27;;;14.17;;
16093;SDS011;8151;47.824;12.092;2022-12-17T05:35:47;25.17;;;14.23;;
16093;SDS011;8151;47.824;12.092;2022-12-17T05:38:32;22.07;;;14.00;;
16093;SDS011;8151;47.824;12.092;2022-12-17T05:41:18;21.53;;;13.30;;
16093;SDS011;8151;47.824;12.092;2022-12-17T05:44:04;24.97;;;13.63;;
16093;SDS011;8151;47.824;12.092;2022-12-17T05:46:48;21.37;;;12.97;;
16093;SDS011;8151;47.824;12.092;2022-12-17T05:49:34;23.43;;;14.17;;
16093;SDS011;8151;47.824;12.092;2022-12-17T05:52:22;26.33;;;13.77;;
16093;SDS011;8151;47.824;12.092;2022-12-17T05:55:07;24.03;;;13.53;;
16093;SDS011;8151;47.824;12.092;2022-12-17T05:58:00;21.97;;;13.17;;
16093;SDS011;8151;47.824;12.092;2022-12-17T06:00:46;22.73;;;12.97;;
16093;SDS011;8151;47.824;12.092;2022-12-17T06:03:33;21.70;;;12.97;;
16093;SDS011;8151;47.824;12.092;2022-12-17T06:06:19;21.87;;;12.60;;
16093;SDS011;8151;47.824;12.092;2022-12-17T06:09:05;19.47;;;12.37;;
16093;SDS011;8151;47.824;12.092;2022-12-17T06:11:51;23.67;;;14.60;;
16093;SDS011;8151;47.824;12.092;2022-12-17T06:14:37;19.80;;;12.63;;
16093;SDS011;8151;47.824;12.092;2022-12-17T06:17:23;22.73;;;13.93;;
16093;SDS011;8151;47.824;12.092;2022-12-17T06:20:10;26.80;;;14.47;;
16093;SDS011;8151;47.824;12.092;2022-12-17T06:23:11;24.87;;;13.80;;
16093;SDS011;8151;47.824;12.092;2022-12-17T06:26:05;17.57;;;11.40;;
16093;SDS011;8151;47.824;12.092;2022-12-17T06:28:51;20.33;;;11.50;;
16093;SDS011;8151;47.824;12.092;2022-12-17T06:31:36;24.43;;;11.47;;
16093;SDS011;8151;47.824;12.092;2022-12-17T06:34:25;25.03;;;12.00;;
16093;SDS011;8151;47.824;12.092;2022-12-17T06:37:12;22.67;;;12.00;;
16093;SDS011;8151;47.824;12.092;2022-12-17T06:39:58;19.40;;;11.73;;
16093;SDS011;8151;47.824;12.092;2022-12-17T06:42:50;18.23;;;11.90;;
16093;SDS011;8151;47.824;12.092;2022-12-17T06:45:37;20.13;;;11.47;;
16093;SDS011;8151;47.824;12.092;2022-12-17T06:48:23;18.83;;;11.53;;
16093;SDS011;8151;47.824;12.092;2022-12-17T06:51:11;20.90;;;11.90;;
16093;SDS011;8151;47.824;12.092;2022-12-17T06:53:58;17.30;;;11.00;;
16093;SDS011;8151;47.824;12.092;2022-12-17T06:56:44;20.17;;;11.87;;
16093;SDS011;8151;47.824;12.092;2022-12-17T06:59:30;20.57;;;12.20;;
16093;SDS011;8151;47.824;12.092;2022-12-17T07:02:16;17.80;;;11.73;;
16093;SDS011;8151;47.824;12.092;2022-12-17T07:05:02;18.70;;;11.03;;
16093;SDS011;8151;47.824;12.092;2022-12-17T07:07:55;20.30;;;10.63;;
16093;SDS011;8151;47.824;12.092;2022-12-17T07:10:43;18.37;;;11.37;;
16093;SDS011;8151;47.824;12.092;2022-12-17T07:13:43;18.50;;;11.53;;
16093;SDS011;8151;47.824;12.092;2022-12-17T07:16:29;19.97;;;11.10;;
16093;SDS011;8151;47.824;12.092;2022-12-17T07:19:15;20.13;;;12.43;;
16093;SDS011;8151;47.824;12.092;2022-12-17T07:22:01;21.77;;;11.47;;
16093;SDS011;8151;47.824;12.092;2022-12-17T07:24:47;17.10;;;11.40;;
16093;SDS011;8151;47.824;12.092;2022-12-17T07:27:34;20.00;;;11.77;;
16093;SDS011;8151;47.824;12.092;2022-12-17T07:30:20;18.43;;;11.17;;
16093;SDS011;8151;47.824;12.092;2022-12-17T07:33:07;18.57;;;10.70;;
16093;SDS011;8151;47.824;12.092;2022-12-17T07:35:54;17.13;;;11.37;;
16093;SDS011;8151;47.824;12.092;2022-12-17T07:38:40;25.47;;;13.87;;
16093;SDS011;8151;47.824;12.092;2022-12-17T07:41:35;19.63;;;11.77;;
16093;SDS011;8151;47.824;12.092;2022-12-17T07:44:22;17.93;;;11.07;;
16093;SDS011;8151;47.824;12.092;2022-12-17T07:47:07;18.43;;;11.40;;
16093;SDS011;8151;47.824;12.092;2022-12-17T07:49:53;19.93;;;11.67;;
16093;SDS011;8151;47.824;12.092;2022-12-17T07:52:39;16.50;;;10.73;;
16093;SDS011;8151;47.824;12.092;2022-12-17T07:55:25;16.93;;;11.00;;
16093;SDS011;8151;47.824;12.092;2022-12-17T07:58:11;19.73;;;10.97;;
16093;SDS011;8151;47.824;12.092;2022-12-17T08:00:59;19.37;;;10.97;;
16093;SDS011;8151;47.824;12.092;2022-12-17T08:03:46;21.77;;;11.67;;
16093;SDS011;8151;47.824;12.092;2022-12-17T08:06:31;17.57;;;11.77;;
16093;SDS011;8151;47.824;12.092;2022-12-17T08:09:25;22.60;;;12.27;;
16093;SDS011;8151;47.824;12.092;2022-12-17T08:12:11;18.13;;;11.07;;
16093;SDS011;8151;47.824;12.092;2022-12-17T08:14:57;18.47;;;11.73;;
16093;SDS011;8151;47.824;12.092;2022-12-17T08:17:44;18.20;;;11.30;;
16093;SDS011;8151;47.824;12.092;2022-12-17T08:20:30;25.47;;;13.53;;
16093;SDS011;8151;47.824;12.092;2022-12-17T08:23:16;23.43;;;12.83;;
16093;SDS011;8151;47.824;12.092;2022-12-17T08:26:03;21.00;;;12.90;;
16093;SDS011;8151;47.824;12.092;2022-12-17T08:28:50;17.73;;;11.93;;
16093;SDS011;8151;47.824;12.092;2022-12-17T08:31:36;16.03;;;11.20;;
16093;SDS011;8151;47.824;12.092;2022-12-17T08:34:24;19.33;;;12.87;;
16093;SDS011;8151;47.824;12.092;2022-12-17T08:37:10;19.13;;;12.10;;
16093;SDS011;8151;47.824;12.092;2022-12-17T08:39:56;20.10;;;11.33;;
16093;SDS011;8151;47.824;12.092;2022-12-17T08:42:42;20.93;;;12.40;;
16093;SDS011;8151;47.824;12.092;2022-12-17T08:45:27;19.37;;;11.57;;
16093;SDS011;8151;47.824;12.092;2022-12-17T08:48:14;20.90;;;12.00;;
16093;SDS011;8151;47.824;12.092;2022-12-17T08:51:01;17.37;;;11.37;;
16093;SDS011;8151;47.824;12.092;2022-12-17T08:53:48;22.77;;;12.13;;
16093;SDS011;8151;47.824;12.092;2022-12-17T08:56:34;18.53;;;11.90;;
16093;SDS011;8151;47.824;12.092;2022-12-17T08:59:22;25.03;;;13.50;;
16093;SDS011;8151;47.824;12.092;2022-12-17T09:02:08;23.67;;;13.73;;
16093;SDS011;8151;47.824;12.092;2022-12-17T09:05:06;21.80;;;13.40;;
16093;SDS011;8151;47.824;12.092;2022-12-17T09:08:08;19.40;;;12.13;;
16093;SDS011;8151;47.824;12.092;2022-12-17T09:10:54;16.60;;;11.23;;
16093;SDS011;8151;47.824;12.092;2022-12-17T09:13:45;21.53;;;12.23;;
16093;SDS011;8151;47.824;12.092;2022-12-17T09:16:30;20.47;;;12.00;;
16093;SDS011;8151;47.824;12.092;2022-12-17T09:19:17;20.70;;;12.47;;
16093;SDS011;8151;47.824;12.092;2022-12-17T09:22:02;18.33;;;11.97;;
16093;SDS011;8151;47.824;12.092;2022-12-17T09:24:50;17.20;;;12.50;;
16093;SDS011;8151;47.824;12.092;2022-12-17T09:27:36;18.10;;;11.80;;
16093;SDS011;8151;47.824;12.092;2022-12-17T09:30:22;18.57;;;12.23;;
16093;SDS011;8151;47.824;12.092;2022-12-17T09:33:12;18.93;;;11.33;;
16093;SDS011;8151;47.824;12.092;2022-12-17T09:36:01;19.67;;;11.87;;
16093;SDS011;8151;47.824;12.092;2022-12-17T09:38:47;22.00;;;12.67;;
16093;SDS011;8151;47.824;12.092;2022-12-17T09:41:38;17.07;;;11.33;;
16093;SDS011;8151;47.824;12.092;2022-12-17T09:44:33;25.63;;;13.23;;
16093;SDS011;8151;47.824;12.092;2022-12-17T09:47:27;18.63;;;11.23;;
16093;SDS011;8151;47.824;12.092;2022-12-17T09:50:24;21.87;;;12.47;;
16093;SDS011;8151;47.824;12.092;2022-12-17T09:53:16;23.33;;;13.63;;
16093;SDS011;8151;47.824;12.092;2022-12-17T09:56:06;23.57;;;13.07;;
16093;SDS011;8151;47.824;12.092;2022-12-17T09:58:56;20.47;;;13.00;;
16093;SDS011;8151;47.824;12.092;2022-12-17T10:01:42;24.80;;;13.73;;
16093;SDS011;8151;47.824;12.092;2022-12-17T10:04:31;30.07;;;15.73;;
16093;SDS011;8151;47.824;12.092;2022-12-17T10:07:22;25.50;;;13.90;;
16093;SDS011;8151;47.824;12.092;2022-12-17T10:10:12;24.50;;;14.13;;
16093;SDS011;8151;47.824;12.092;2022-12-17T10:13:00;23.23;;;14.00;;
16093;SDS011;8151;47.824;12.092;2022-12-17T10:15:48;32.70;;;17.83;;
16093;SDS011;8151;47.824;12.092;2022-12-17T10:18:33;31.43;;;16.87;;
16093;SDS011;8151;47.824;12.092;2022-12-17T10:21:22;26.07;;;15.63;;
16093;SDS011;8151;47.824;12.092;2022-12-17T10:24:09;24.00;;;15.10;;
16093;SDS011;8151;47.824;12.092;2022-12-17T10:26:55;23.93;;;14.97;;
16093;SDS011;8151;47.824;12.092;2022-12-17T10:29:42;24.77;;;13.20;;
16093;SDS011;8151;47.824;12.092;2022-12-17T10:32:30;27.83;;;14.00;;
16093;SDS011;8151;47.824;12.092;2022-12-17T10:35:33;86.47;;;43.03;;
16093;SDS011;8151;47.824;12.092;2022-12-17T10:38:23;48.20;;;26.87;;
16093;SDS011;8151;47.824;12.092;2022-12-17T10:41:20;52.83;;;26.97;;
16093;SDS011;8151;47.824;12.092;2022-12-17T10:44:20;38.33;;;21.83;;
16093;SDS011;8151;47.824;12.092;2022-12-17T10:47:11;27.17;;;16.43;;
16093;SDS011;8151;47.824;12.092;2022-12-17T10:50:00;32.77;;;16.63;;
16093;SDS011;8151;47.824;12.092;2022-12-17T10:52:48;29.30;;;16.70;;
16093;SDS011;8151;47.824;12.092;2022-12-17T10:55:34;32.07;;;16.23;;
16093;SDS011;8151;47.824;12.092;2022-12-17T10:58:22;27.00;;;15.03;;
16093;SDS011;8151;47.824;12.092;2022-12-17T11:01:10;27.47;;;16.23;;
16093;SDS011;8151;47.824;12.092;2022-12-17T11:04:02;35.37;;;16.87;;
16093;SDS011;8151;47.824;12.092;2022-12-17T11:06:50;28.20;;;16.67;;
16093;SDS011;8151;47.824;12.092;2022-12-17T11:09:39;31.43;;;17.37;;
16093;SDS011;8151;47.824;12.092;2022-12-17T11:12:36;32.23;;;16.33;;
16093;SDS011;8151;47.824;12.092;2022-12-17T11:15:28;26.60;;;15.60;;
16093;SDS011;8151;47.824;12.092;2022-12-17T11:18:19;29.43;;;16.17;;
16093;SDS011;8151;47.824;12.092;2022-12-17T11:21:09;32.77;;;16.43;;
16093;SDS011;8151;47.824;12.092;2022-12-17T11:24:00;37.97;;;17.37;;
16093;SDS011;8151;47.824;12.092;2022-12-17T11:26:49;34.67;;;16.73;;
16093;SDS011;8151;47.824;12.092;2022-12-17T11:29:38;31.27;;;17.33;;
16093;SDS011;8151;47.824;12.092;2022-12-17T11:32:38;33.07;;;16.93;;
16093;SDS011;8151;47.824;12.092;2022-12-17T11:35:35;30.67;;;16.83;;
16093;SDS011;8151;47.824;12.092;2022-12-17T11:38:31;52.30;;;29.33;;
16093;SDS011;8151;47.824;12.092;2022-12-17T11:41:29;44.87;;;25.03;;
16093;SDS011;8151;47.824;12.092;2022-12-17T11:44:27;32.00;;;19.60;;
16093;SDS011;8151;47.824;12.092;2022-12-17T11:47:27;46.80;;;24.60;;
16093;SDS011;8151;47.824;12.092;2022-12-17T11:50:26;36.93;;;20.80;;
16093;SDS011;8151;47.824;12.092;2022-12-17T11:53:21;33.73;;;20.07;;
16093;SDS011;8151;47.824;12.092;2022-12-17T11:56:26;37.00;;;19.17;;
16093;SDS011;8151;47.824;12.092;2022-12-17T11:59:21;33.27;;;19.07;;
16093;SDS011;8151;47.824;12.092;2022-12-17T12:02:24;28.50;;;15.67;;
16093;SDS011;8151;47.824;12.092;2022-12-17T12:05:23;24.67;;;13.80;;
16093;SDS011;8151;47.824;12.092;2022-12-17T12:08:22;30.13;;;15.77;;
16093;SDS011;8151;47.824;12.092;2022-12-17T12:11:14;30.07;;;16.37;;
16093;SDS011;8151;47.824;12.092;2022-12-17T12:14:13;24.13;;;13.93;;
16093;SDS011;8151;47.824;12.092;2022-12-17T12:17:22;23.13;;;14.53;;
16093;SDS011;8151;47.824;12.092;2022-12-17T12:20:29;30.90;;;15.70;;
16093;SDS011;8151;47.824;12.092;2022-12-17T12:23:34;30.67;;;15.30;;
16093;SDS011;8151;47.824;12.092;2022-12-17T12:26:32;73.03;;;39.40;;
16093;SDS011;8151;47.824;12.092;2022-12-17T12:29:34;55.27;;;29.13;;
16093;SDS011;8151;47.824;12.092;2022-12-17T12:32:40;45.37;;;25.13;;
16093;SDS011;8151;47.824;12.092;2022-12-17T12:35:35;36.40;;;18.80;;
16093;SDS011;8151;47.824;12.092;2022-12-17T12:38:23;34.07;;;16.87;;
16093;SDS011;8151;47.824;12.092;2022-12-17T12:41:16;29.90;;;17.07;;
16093;SDS011;8151;47.824;12.092;2022-12-17T12:44:07;33.10;;;16.80;;
16093;SDS011;8151;47.824;12.092;2022-12-17T12:47:08;27.30;;;16.63;;
16093;SDS011;8151;47.824;12.092;2022-12-17T12:49:58;34.93;;;18.93;;
16093;SDS011;8151;47.824;12.092;2022-12-17T12:52:50;34.80;;;18.23;;
16093;SDS011;8151;47.824;12.092;2022-12-17T12:55:37;37.03;;;18.20;;
16093;SDS011;8151;47.824;12.092;2022-12-17T12:58:25;29.40;;;17.17;;
16093;SDS011;8151;47.824;12.092;2022-12-17T13:01:12;31.43;;;15.63;;
16093;SDS011;8151;47.824;12.092;2022-12-17T13:04:01;29.10;;;16.77;;
16093;SDS011;8151;47.824;12.092;2022-12-17T13:06:59;34.33;;;17.50;;
16093;SDS011;8151;47.824;12.092;2022-12-17T13:09:32;35.30;;;18.20;;
16093;SDS011;8151;47.824;12.092;2022-12-17T13:12:17;33.07;;;17.90;;
16093;SDS011;8151;47.824;12.092;2022-12-17T13:14:52;27.23;;;16.03;;
16093;SDS011;8151;47.824;12.092;2022-12-17T13:17:27;26.93;;;16.03;;
16093;SDS011;8151;47.824;12.092;2022-12-17T13:20:18;27.30;;;15.80;;
16093;SDS011;8151;47.824;12.092;2022-12-17T13:22:51;31.90;;;17.43;;
16093;SDS011;8151;47.824;12.092;2022-12-17T13:25:31;26.33;;;15.93;;
16093;SDS011;8151;47.824;12.092;2022-12-17T13:28:00;27.43;;;16.97;;
16093;SDS011;8151;47.824;12.092;2022-12-17T13:30:30;27.47;;;16.17;;
16093;SDS011;8151;47.824;12.092;2022-12-17T13:33:07;30.67;;;16.80;;
16093;SDS011;8151;47.824;12.092;2022-12-17T13:35:52;29.57;;;17.47;;
16093;SDS011;8151;47.824;12.092;2022-12-17T13:38:30;28.57;;;17.00;;
16093;SDS011;8151;47.824;12.092;2022-12-17T13:41:07;29.10;;;16.47;;
16093;SDS011;8151;47.824;12.092;2022-12-17T13:43:38;36.27;;;19.47;;
16093;SDS011;8151;47.824;12.092;2022-12-17T13:46:17;28.67;;;17.47;;
16093;SDS011;8151;47.824;12.092;2022-12-17T13:48:50;27.97;;;16.83;;
16093;SDS011;8151;47.824;12.092;2022-12-17T13:51:22;30.13;;;16.57;;
16093;SDS011;8151;47.824;12.092;2022-12-17T13:53:53;29.63;;;17.07;;
16093;SDS011;8151;47.824;12.092;2022-12-17T13:56:24;27.77;;;15.90;;
16093;SDS011;8151;47.824;12.092;2022-12-17T13:59:00;32.97;;;17.93;;
16093;SDS011;8151;47.824;12.092;2022-12-17T14:01:42;28.43;;;16.53;;
16093;SDS011;8151;47.824;12.092;2022-12-17T14:04:22;33.30;;;16.60;;
16093;SDS011;8151;47.824;12.092;2022-12-17T14:06:53;33.20;;;18.77;;
16093;SDS011;8151;47.824;12.092;2022-12-17T14:09:26;32.37;;;18.97;;
16093;SDS011;8151;47.824;12.092;2022-12-17T14:12:00;31.10;;;18.00;;
16093;SDS011;8151;47.824;12.092;2022-12-17T14:14:50;33.63;;;18.93;;
16093;SDS011;8151;47.824;12.092;2022-12-17T14:17:23;31.83;;;16.80;;
16093;SDS011;8151;47.824;12.092;2022-12-17T14:19:55;32.73;;;16.43;;
16093;SDS011;8151;47.824;12.092;2022-12-17T14:22:32;29.20;;;17.10;;
16093;SDS011;8151;47.824;12.092;2022-12-17T14:25:03;27.33;;;16.27;;
16093;SDS011;8151;47.824;12.092;2022-12-17T14:27:34;31.37;;;16.60;;
16093;SDS011;8151;47.824;12.092;2022-12-17T14:30:18;32.20;;;15.93;;
16093;SDS011;8151;47.824;12.092;2022-12-17T14:32:48;28.23;;;16.20;;
16093;SDS011;8151;47.824;12.092;2022-12-17T14:35:23;32.07;;;18.17;;
16093;SDS011;8151;47.824;12.092;2022-12-17T14:37:55;32.53;;;17.60;;
16093;SDS011;8151;47.824;12.092;2022-12-17T14:40:23;32.33;;;16.93;;
16093;SDS011;8151;47.824;12.092;2022-12-17T14:42:56;33.23;;;17.50;;
16093;SDS011;8151;47.824;12.092;2022-12-17T14:45:27;31.27;;;17.43;;
16093;SDS011;8151;47.824;12.092;2022-12-17T14:47:56;31.30;;;17.17;;
16093;SDS011;8151;47.824;12.092;2022-12-17T14:50:29;45.83;;;26.00;;
16093;SDS011;8151;47.824;12.092;2022-12-17T14:53:01;29.90;;;16.03;;
16093;SDS011;8151;47.824;12.092;2022-12-17T14:55:32;28.60;;;15.70;;
16093;SDS011;8151;47.824;12.092;2022-12-17T14:58:07;31.33;;;17.40;;
16093;SDS011;8151;47.824;12.092;2022-12-17T15:00:43;31.83;;;17.60;;
16093;SDS011;8151;47.824;12.092;2022-12-17T15:03:16;30.30;;;17.33;;
16093;SDS011;8151;47.824;12.092;2022-12-17T15:05:47;30.67;;;17.53;;
16093;SDS011;8151;47.824;12.092;2022-12-17T15:08:20;30.63;;;16.60;;
16093;SDS011;8151;47.824;12.092;2022-12-17T15:10:49;32.53;;;16.33;;
16093;SDS011;8151;47.824;12.092;2022-12-17T15:13:17;36.13;;;20.13;;
16093;SDS011;8151;47.824;12.092;2022-12-17T15:15:46;38.50;;;20.30;;
16093;SDS011;8151;47.824;12.092;2022-12-17T15:18:14;41.37;;;20.17;;
16093;SDS011;8151;47.824;12.092;2022-12-17T15:20:43;90.47;;;34.97;;
16093;SDS011;8151;47.824;12.092;2022-12-17T15:23:12;35.27;;;19.73;;
16093;SDS011;8151;47.824;12.092;2022-12-17T15:25:46;55.87;;;25.80;;
16093;SDS011;8151;47.824;12.092;2022-12-17T15:28:16;38.90;;;21.30;;
16093;SDS011;8151;47.824;12.092;2022-12-17T15:30:46;35.07;;;17.87;;
16093;SDS011;8151;47.824;12.092;2022-12-17T15:33:15;33.03;;;18.43;;
16093;SDS011;8151;47.824;12.092;2022-12-17T15:35:44;34.20;;;18.87;;
16093;SDS011;8151;47.824;12.092;2022-12-17T15:38:12;31.33;;;18.37;;
16093;SDS011;8151;47.824;12.092;2022-12-17T15:40:40;33.47;;;18.73;;
16093;SDS011;8151;47.824;12.092;2022-12-17T15:43:11;28.93;;;16.83;;
16093;SDS011;8151;47.824;12.092;2022-12-17T15:45:39;29.43;;;16.40;;
16093;SDS011;8151;47.824;12.092;2022-12-17T15:48:08;31.03;;;16.70;;
16093;SDS011;8151;47.824;12.092;2022-12-17T15:50:37;31.37;;;17.07;;
16093;SDS011;8151;47.824;12.092;2022-12-17T15:53:05;31.53;;;18.27;;
16093;SDS011;8151;47.824;12.092;2022-12-17T15:55:35;28.53;;;16.37;;
16093;SDS011;8151;47.824;12.092;2022-12-17T15:58:04;30.53;;;17.50;;
16093;SDS011;8151;47.824;12.092;2022-12-17T16:00:34;31.00;;;18.23;;
16093;SDS011;8151;47.824;12.092;2022-12-17T16:03:02;31.43;;;16.87;;
16093;SDS011;8151;47.824;12.092;2022-12-17T16:05:31;28.60;;;16.73;;
16093;SDS011;8151;47.824;12.092;2022-12-17T16:07:59;32.57;;;16.97;;
16093;SDS011;8151;47.824;12.092;2022-12-17T16:10:29;31.27;;;18.13;;